CheckWX is a tool to help pilots better visualize weather data.  It is not intended as a substitute for an official pre-flight weather briefing.

00:57:30 UTC

KHRJ METAR
Harnett Regional Jetport Airport
Erwin, North Carolina, USA
Current

43 mins ago

KHRJ 170015Z AUTO 00000KT 10SM CLR 25/21 A2997 RMK AO2 T02470211
Observed
Sep-17 @ 00:15 UTC
Visibility
10 SM
Flight Rules
VFR
Cloud Levels
  • Clear skies
Temperature
25°C / 77°F
Dewpoint
21°C / 70°F
Humidity
79%
Altimeter
29.97" Hg
Pressure
1014.92 hPa
Previous

2 hours ago

KHRJ 162235Z AUTO 07003KT 10SM CLR 30/19 A2997 RMK AO2 T03040192
Observed
Sep-16 @ 22:35 UTC
Wind
  • 070° at 3 KTS
Visibility
10 SM
Flight Rules
VFR
Cloud Levels
  • Clear skies
Temperature
30°C / 86°F
Dewpoint
19°C / 66°F
Heat Index
31°C / 88°F
Humidity
52%
Altimeter
29.97" Hg
Pressure
1014.92 hPa
Previous

3 hours ago

KHRJ 162215Z AUTO 05003KT 10SM CLR 31/19 A2997 RMK AO2 T03110189
Observed
Sep-16 @ 22:15 UTC
Wind
  • 050° at 3 KTS
Visibility
10 SM
Flight Rules
VFR
Cloud Levels
  • Clear skies
Temperature
31°C / 88°F
Dewpoint
19°C / 66°F
Heat Index
33°C / 91°F
Humidity
49%
Altimeter
29.97" Hg
Pressure
1014.92 hPa